Art, Texas
Current Conditions -  °F | °C
As of 10:35 AM on Thursday 23 Oct 2014 (Local Time) from KBBD Reporting Station
Overcast Overcast  
Wind Chill: 70°   Ceiling: 9000
Heat Index: 70°   Visibility: 10mi
Dew Point: 57°   Wind: 5mph
Humidity: 64%   Direction: 90°E
Pressure: 30.17"   Gusts: NA
Location:  30.74°N, 99.11°W
Report Text: KBBD 231535Z AUTO 09004KT 10SM FEW050 OVC090 21/14 A3017 RMK
Loading
Personal Weather Stations






























Interactive Weather Map
Tropical Storm Tracking
New forecast layout! Learn more

10-Day Weather Forecast

Advertisements
Track Severe Weather on mobile